Terminal Aerodrome Forecast
Issued by NWS

Home | Current Version | Previous Version | Text Only | Print | Product List | Glossary On
Versions: 1 2 3 4 5 6 7 8 9 10 11 12 13
000
FTAK31 PANC 202341
TAFADU
TAF
PADU 202341Z 2100/2124 13008KT P6SM SCT025 BKN120
     FM210600 14005KT P6SM -SHRA SCT020 BKN035
     FM211200 12005KT 6SM -RA BR OVC007=

USA.gov is the U.S. government's official web portal to all federal, state and local government web resources and services.